Aeroporto :







RITROVATECI SU...

 
LOGIN :

Iscrizione | Disclaimer

   EN    FR    IT 

 









Sommario :    VFR   VFR Marginale   IFR   IFR Intensivo   IFR Molto Intensivo
Visibilità : 
Base nubi : 
>= 8 km
>= 3000ft
5 / 8 km
1000 / 3000 ft
1500m / 5 km
500 / 1000 ft
800 / 1500m
200 / 500 ft
< 800m
< 200 ft
Simboli :   Temporali  Nebbia  Neve Forte  Precipitazioni Forti  Vento > 20 kt






- Altitudine del aeroporto : 20 ft
- Codice IATA : BOS


KBOS - General Edward Lawrence Logan International

ULTIMO METAR :
  • 040254Z 03023G31KT 2 1/2SM -RA BR FEW007 BKN010 OVC014 06/04 A2988 RMK AO2 PK WND 03032/0210 SLP118 P0001 60002 T00560044 51024

METARs OBSOLETI :
  • 040154Z 03025G30KT 2 1/2SM -RA BR SCT009 BKN012 OVC016 06/05 A2987 RMK AO2 PK WND 03035/0056 SLP113 P0000 T00610050
  • 040054Z 03024G34KT 2SM -RA BR FEW008 BKN010 OVC015 06/05 A2984 RMK AO2 PK WND 02034/0054 SLP105 P0001 T00610050
  • 032354Z 04023G31KT 2 1/2SM -RA BR FEW007 BKN010 OVC015 07/05 A2981 RMK AO2 PK WND 03033/2333 SLP094 P0001 60002 T00670050 10067 20067 52029

TAF KBOS
Valido dal 04 a 00 ore il 05 a 06 ore UTC


032326Z 0400/0506 03022G32KT 2SM -SHRA BR OVC010
FM040700 03016G25KT 3SM BR VCSH OVC008
FM041000 03013G27KT 5SM BR VCSH OVC008
FM041200 03013G26KT P6SM VCSH OVC008
FM041500 04013G23KT P6SM OVC010
FM041700 04012G19KT P6SM BKN014
FM042300 08008KT P6SM BKN035



MetMap, La meteo Aeronautica in un colpo d'occhio ! - Copyright ORBIFLY Dicembre 2007 - Disclaimer

ORBIFLY MET'MAP TEAM :

Programmazione e sviluppo : Alexandra Zaïnal
Concezione : Baudouin d'Aumeries
Aiuto per la programmazione : Marc-Olivier Méhu
Supporto tecnico e logistico : Manuel Goepfert
Aiuto per la traduzione : Arnaldo La Scala

Contatto : metmap@orbifly.com




FONTI E CREDITI :

   NOAA